This is the latest recevied weather packets stored in our database for station/object W0DXV. If no packets are shown the sender has not sent any weather packets the latest 1 day(s).
| Time | Temp. | Humidity | Pressure | Rain* | Wind** | Luminosity | Snow |
|---|---|---|---|---|---|---|---|
| 1778117858 | 18.89° C | 97% | 1008.5 hPa | 0 mm | - | 0 W/m² | - |
| 1778117556 | 18.89° C | 97% | 1008.4 hPa | 0 mm | - | 0 W/m² | - |
| 1778117253 | 19.44° C | 97% | 1008.3 hPa | 0 mm | - | 0 W/m² | - |
| 1778116646 | 19.44° C | 97% | 1007.9 hPa | 3.05 mm | - | 0 W/m² | - |
| 1778116343 | 19.44° C | 97% | 1007.9 hPa | 1.78 mm | - | 0 W/m² | - |
| 1778116042 | 19.44° C | 97% | 1008.1 hPa | 1.27 mm | - | 0 W/m² | - |
| 1778114829 | 19.44° C | 96% | 1008.3 hPa | 0 mm | - | 0 W/m² | - |
| 1778114527 | 19.44° C | 96% | 1008.3 hPa | 0 mm | - | 0 W/m² | - |
| 1778114223 | 19.44° C | 96% | 1008.1 hPa | 0 mm | - | 0 W/m² | - |
| 1778113918 | 19.44° C | 95% | 1008.4 hPa | 0 mm | - | 0 W/m² | - |
| 1778113310 | 20° C | 94% | 1007.9 hPa | 0 mm | - | 0 W/m² | - |
| 1778113007 | 20° C | 94% | 1007.7 hPa | 0 mm | - | 0 W/m² | - |
| 1778112705 | 20° C | 93% | 1007.9 hPa | 0 mm | - | 1 W/m² | - |
| 1778112401 | 20° C | 93% | 1007.9 hPa | 0 mm | - | 1 W/m² | - |
| 1778111494 | 20.56° C | 89% | 1008.1 hPa | 1.78 mm | - | 6 W/m² | - |
| 1778109070 | 21.67° C | 85% | 1007.9 hPa | 0 mm | - | 19 W/m² | - |
| 1778107250 | 22.22° C | 82% | 1008.6 hPa | 0 mm | - | 31 W/m² | - |
| 1778103308 | 22.78° C | 79% | 1008.4 hPa | 0 mm | - | 126 W/m² | - |
| 1778101485 | 22.22° C | 78% | 1007.9 hPa | 0 mm | - | 163 W/m² | - |
| 1778100273 | 22.22° C | 79% | 1008.2 hPa | 0 mm | - | 152 W/m² | - |
| 1778099970 | 22.78° C | 78% | 1008.4 hPa | 0 mm | - | 197 W/m² | - |
| 1778099364 | 22.78° C | 76% | 1008.5 hPa | 0 mm | - | 205 W/m² | - |
| 1778096635 | 21.67° C | 84% | 1008.3 hPa | 0 mm | - | 337 W/m² | - |
| 1778096029 | 21.67° C | 82% | 1008.4 hPa | 0 mm | - | 460 W/m² | - |
| 1778093906 | 19.44° C | 89% | 1008.9 hPa | 0 mm | - | 412 W/m² | - |
* Rain latest hour (hover to see other rain measurements)
** Current wind speed in m/s (hover to see current wind gust speed)